sensor_id;sensor_type;location;lat;lon;timestamp;temperature;humidity
56771;DHT22;42641;59.794;17.616;2023-05-07T00:01:08;3.70;99.90
56771;DHT22;42641;59.794;17.616;2023-05-07T00:03:35;3.60;99.90
56771;DHT22;42641;59.794;17.616;2023-05-07T00:06:02;3.50;99.90
56771;DHT22;42641;59.794;17.616;2023-05-07T00:08:29;3.30;99.90
56771;DHT22;42641;59.794;17.616;2023-05-07T00:10:56;3.20;99.90
56771;DHT22;42641;59.794;17.616;2023-05-07T00:13:22;3.00;99.90
56771;DHT22;42641;59.794;17.616;2023-05-07T00:15:48;2.80;99.90
56771;DHT22;42641;59.794;17.616;2023-05-07T00:18:15;2.70;99.90
56771;DHT22;42641;59.794;17.616;2023-05-07T00:20:42;2.60;99.90
56771;DHT22;42641;59.794;17.616;2023-05-07T00:23:09;2.40;99.90
56771;DHT22;42641;59.794;17.616;2023-05-07T00:25:35;2.30;99.90
56771;DHT22;42641;59.794;17.616;2023-05-07T00:28:02;2.30;99.90
56771;DHT22;42641;59.794;17.616;2023-05-07T00:30:29;2.30;99.90
56771;DHT22;42641;59.794;17.616;2023-05-07T00:32:56;2.30;99.90
56771;DHT22;42641;59.794;17.616;2023-05-07T00:35:23;2.20;99.90
56771;DHT22;42641;59.794;17.616;2023-05-07T00:37:49;2.10;99.90
56771;DHT22;42641;59.794;17.616;2023-05-07T00:40:16;2.10;99.90
56771;DHT22;42641;59.794;17.616;2023-05-07T00:42:42;2.00;99.90
56771;DHT22;42641;59.794;17.616;2023-05-07T00:45:13;2.00;99.90
56771;DHT22;42641;59.794;17.616;2023-05-07T00:47:40;1.90;99.90
56771;DHT22;42641;59.794;17.616;2023-05-07T00:50:08;1.80;99.90
56771;DHT22;42641;59.794;17.616;2023-05-07T00:52:37;1.80;99.90
56771;DHT22;42641;59.794;17.616;2023-05-07T00:55:06;1.70;99.90
56771;DHT22;42641;59.794;17.616;2023-05-07T00:57:37;1.50;99.90
56771;DHT22;42641;59.794;17.616;2023-05-07T01:00:04;1.50;99.90
56771;DHT22;42641;59.794;17.616;2023-05-07T01:02:31;1.50;99.90
56771;DHT22;42641;59.794;17.616;2023-05-07T01:04:58;1.40;99.90
56771;DHT22;42641;59.794;17.616;2023-05-07T01:07:24;1.30;99.90
56771;DHT22;42641;59.794;17.616;2023-05-07T01:09:51;1.40;99.90
56771;DHT22;42641;59.794;17.616;2023-05-07T01:12:18;1.30;99.90
56771;DHT22;42641;59.794;17.616;2023-05-07T01:14:44;1.30;99.90
56771;DHT22;42641;59.794;17.616;2023-05-07T01:17:11;1.40;99.90
56771;DHT22;42641;59.794;17.616;2023-05-07T01:19:37;1.30;99.90
56771;DHT22;42641;59.794;17.616;2023-05-07T01:22:08;1.30;99.90
56771;DHT22;42641;59.794;17.616;2023-05-07T01:24:45;1.30;99.90
56771;DHT22;42641;59.794;17.616;2023-05-07T01:27:13;1.20;99.90
56771;DHT22;42641;59.794;17.616;2023-05-07T01:29:40;1.20;99.90
56771;DHT22;42641;59.794;17.616;2023-05-07T01:32:07;1.20;99.90
56771;DHT22;42641;59.794;17.616;2023-05-07T01:34:34;1.20;99.90
56771;DHT22;42641;59.794;17.616;2023-05-07T01:37:02;1.10;99.90
56771;DHT22;42641;59.794;17.616;2023-05-07T01:39:30;1.10;99.90
56771;DHT22;42641;59.794;17.616;2023-05-07T01:41:57;1.10;99.90
56771;DHT22;42641;59.794;17.616;2023-05-07T01:44:25;1.00;99.90
56771;DHT22;42641;59.794;17.616;2023-05-07T01:46:53;1.00;99.90
56771;DHT22;42641;59.794;17.616;2023-05-07T01:49:20;0.90;99.90
56771;DHT22;42641;59.794;17.616;2023-05-07T01:51:46;0.80;99.90
56771;DHT22;42641;59.794;17.616;2023-05-07T01:54:13;0.80;99.90
56771;DHT22;42641;59.794;17.616;2023-05-07T01:56:41;0.80;99.90
56771;DHT22;42641;59.794;17.616;2023-05-07T01:59:07;0.80;99.90
56771;DHT22;42641;59.794;17.616;2023-05-07T02:01:34;0.70;99.90
56771;DHT22;42641;59.794;17.616;2023-05-07T02:04:01;0.70;99.90
56771;DHT22;42641;59.794;17.616;2023-05-07T02:06:29;0.70;99.90
56771;DHT22;42641;59.794;17.616;2023-05-07T02:09:02;0.80;99.90
56771;DHT22;42641;59.794;17.616;2023-05-07T02:11:29;0.80;99.90
56771;DHT22;42641;59.794;17.616;2023-05-07T02:13:55;0.80;99.90
56771;DHT22;42641;59.794;17.616;2023-05-07T02:16:22;0.70;99.90
56771;DHT22;42641;59.794;17.616;2023-05-07T02:18:50;0.70;99.90
56771;DHT22;42641;59.794;17.616;2023-05-07T02:21:16;0.70;99.90
56771;DHT22;42641;59.794;17.616;2023-05-07T02:23:43;0.70;99.90
56771;DHT22;42641;59.794;17.616;2023-05-07T02:26:10;0.60;99.90
56771;DHT22;42641;59.794;17.616;2023-05-07T02:28:38;0.60;99.90
56771;DHT22;42641;59.794;17.616;2023-05-07T02:31:05;0.60;99.90
56771;DHT22;42641;59.794;17.616;2023-05-07T02:33:33;0.60;99.90
56771;DHT22;42641;59.794;17.616;2023-05-07T02:36:09;0.50;99.90
56771;DHT22;42641;59.794;17.616;2023-05-07T02:38:40;0.50;99.90
56771;DHT22;42641;59.794;17.616;2023-05-07T02:41:07;0.50;99.90
56771;DHT22;42641;59.794;17.616;2023-05-07T02:43:33;0.40;99.90
56771;DHT22;42641;59.794;17.616;2023-05-07T02:46:01;0.40;99.90
56771;DHT22;42641;59.794;17.616;2023-05-07T02:48:28;0.40;99.90
56771;DHT22;42641;59.794;17.616;2023-05-07T02:50:55;0.40;99.90
56771;DHT22;42641;59.794;17.616;2023-05-07T02:53:21;0.40;99.90
56771;DHT22;42641;59.794;17.616;2023-05-07T02:55:48;0.40;99.90
56771;DHT22;42641;59.794;17.616;2023-05-07T02:58:15;0.50;99.90
56771;DHT22;42641;59.794;17.616;2023-05-07T03:00:42;0.50;99.90
56771;DHT22;42641;59.794;17.616;2023-05-07T03:03:18;0.50;99.90
56771;DHT22;42641;59.794;17.616;2023-05-07T03:05:46;0.50;99.90
56771;DHT22;42641;59.794;17.616;2023-05-07T03:08:13;0.50;99.90
56771;DHT22;42641;59.794;17.616;2023-05-07T03:10:39;0.50;99.90
56771;DHT22;42641;59.794;17.616;2023-05-07T03:13:06;0.50;99.90
56771;DHT22;42641;59.794;17.616;2023-05-07T03:15:33;0.50;99.90
56771;DHT22;42641;59.794;17.616;2023-05-07T03:18:00;0.60;99.90
56771;DHT22;42641;59.794;17.616;2023-05-07T03:20:26;0.60;99.90
56771;DHT22;42641;59.794;17.616;2023-05-07T03:22:53;0.60;99.90
56771;DHT22;42641;59.794;17.616;2023-05-07T03:25:19;0.70;99.90
56771;DHT22;42641;59.794;17.616;2023-05-07T03:27:46;0.70;99.90
56771;DHT22;42641;59.794;17.616;2023-05-07T03:30:13;0.70;99.90
56771;DHT22;42641;59.794;17.616;2023-05-07T03:32:40;0.70;99.90
56771;DHT22;42641;59.794;17.616;2023-05-07T03:35:10;0.80;99.90
56771;DHT22;42641;59.794;17.616;2023-05-07T03:37:37;0.80;99.90
56771;DHT22;42641;59.794;17.616;2023-05-07T03:40:05;0.90;99.90
56771;DHT22;42641;59.794;17.616;2023-05-07T03:42:40;1.00;99.90
56771;DHT22;42641;59.794;17.616;2023-05-07T03:45:08;1.10;99.90
56771;DHT22;42641;59.794;17.616;2023-05-07T03:47:35;1.20;99.90
56771;DHT22;42641;59.794;17.616;2023-05-07T03:50:01;1.20;99.90
56771;DHT22;42641;59.794;17.616;2023-05-07T03:52:28;1.30;99.90
56771;DHT22;42641;59.794;17.616;2023-05-07T03:54:58;1.40;99.90
56771;DHT22;42641;59.794;17.616;2023-05-07T03:57:26;1.40;99.90
56771;DHT22;42641;59.794;17.616;2023-05-07T03:59:52;1.50;99.90
56771;DHT22;42641;59.794;17.616;2023-05-07T04:02:19;1.50;99.90
56771;DHT22;42641;59.794;17.616;2023-05-07T04:04:45;1.60;99.90
56771;DHT22;42641;59.794;17.616;2023-05-07T04:07:12;1.70;99.90
56771;DHT22;42641;59.794;17.616;2023-05-07T04:09:42;1.80;99.90
56771;DHT22;42641;59.794;17.616;2023-05-07T04:12:09;1.90;99.90
56771;DHT22;42641;59.794;17.616;2023-05-07T04:14:36;2.00;99.90
56771;DHT22;42641;59.794;17.616;2023-05-07T04:17:02;2.10;99.90
56771;DHT22;42641;59.794;17.616;2023-05-07T04:19:29;2.20;99.90
56771;DHT22;42641;59.794;17.616;2023-05-07T04:21:56;2.20;99.90
56771;DHT22;42641;59.794;17.616;2023-05-07T04:24:22;2.30;99.90
56771;DHT22;42641;59.794;17.616;2023-05-07T04:26:49;2.40;99.90
56771;DHT22;42641;59.794;17.616;2023-05-07T04:29:18;2.60;99.90
56771;DHT22;42641;59.794;17.616;2023-05-07T04:31:44;2.70;99.90
56771;DHT22;42641;59.794;17.616;2023-05-07T04:34:11;2.80;99.90
56771;DHT22;42641;59.794;17.616;2023-05-07T04:36:38;2.80;99.90
56771;DHT22;42641;59.794;17.616;2023-05-07T04:39:10;3.00;99.90
56771;DHT22;42641;59.794;17.616;2023-05-07T04:41:37;3.00;99.90
56771;DHT22;42641;59.794;17.616;2023-05-07T04:44:04;3.10;99.90
56771;DHT22;42641;59.794;17.616;2023-05-07T04:46:32;3.20;99.90
56771;DHT22;42641;59.794;17.616;2023-05-07T04:48:58;3.30;99.90
56771;DHT22;42641;59.794;17.616;2023-05-07T04:51:25;3.40;99.90
56771;DHT22;42641;59.794;17.616;2023-05-07T04:53:51;3.60;99.90
56771;DHT22;42641;59.794;17.616;2023-05-07T04:56:18;3.60;99.90
56771;DHT22;42641;59.794;17.616;2023-05-07T04:58:46;3.80;99.90
56771;DHT22;42641;59.794;17.616;2023-05-07T05:01:15;3.80;99.90
56771;DHT22;42641;59.794;17.616;2023-05-07T05:03:42;4.00;99.90
56771;DHT22;42641;59.794;17.616;2023-05-07T05:06:09;4.10;99.90
56771;DHT22;42641;59.794;17.616;2023-05-07T05:08:36;4.20;99.90
56771;DHT22;42641;59.794;17.616;2023-05-07T05:11:04;4.30;99.90
56771;DHT22;42641;59.794;17.616;2023-05-07T05:13:33;4.40;99.90
56771;DHT22;42641;59.794;17.616;2023-05-07T05:16:01;4.50;99.90
56771;DHT22;42641;59.794;17.616;2023-05-07T05:18:31;4.60;99.90
56771;DHT22;42641;59.794;17.616;2023-05-07T05:20:57;4.60;99.90
56771;DHT22;42641;59.794;17.616;2023-05-07T05:23:24;4.80;99.90
56771;DHT22;42641;59.794;17.616;2023-05-07T05:25:55;4.90;99.90
56771;DHT22;42641;59.794;17.616;2023-05-07T05:28:23;4.90;99.90
56771;DHT22;42641;59.794;17.616;2023-05-07T05:30:50;5.00;99.90
56771;DHT22;42641;59.794;17.616;2023-05-07T05:33:17;5.10;99.90
56771;DHT22;42641;59.794;17.616;2023-05-07T05:35:43;5.20;99.90
56771;DHT22;42641;59.794;17.616;2023-05-07T05:38:12;5.30;99.90
56771;DHT22;42641;59.794;17.616;2023-05-07T05:40:39;5.40;99.90
56771;DHT22;42641;59.794;17.616;2023-05-07T05:43:06;5.50;99.90
56771;DHT22;42641;59.794;17.616;2023-05-07T05:45:33;5.70;99.90
56771;DHT22;42641;59.794;17.616;2023-05-07T05:47:59;5.70;99.90
56771;DHT22;42641;59.794;17.616;2023-05-07T05:50:26;5.80;99.90
56771;DHT22;42641;59.794;17.616;2023-05-07T05:52:54;5.90;99.90
56771;DHT22;42641;59.794;17.616;2023-05-07T05:55:21;6.10;99.90
56771;DHT22;42641;59.794;17.616;2023-05-07T05:57:48;6.10;99.90
56771;DHT22;42641;59.794;17.616;2023-05-07T06:00:16;6.20;99.90
56771;DHT22;42641;59.794;17.616;2023-05-07T06:02:45;6.30;99.90
56771;DHT22;42641;59.794;17.616;2023-05-07T06:05:16;6.40;99.90
56771;DHT22;42641;59.794;17.616;2023-05-07T06:07:43;6.60;99.90
56771;DHT22;42641;59.794;17.616;2023-05-07T06:10:11;6.70;99.90
56771;DHT22;42641;59.794;17.616;2023-05-07T06:12:38;6.80;99.90
56771;DHT22;42641;59.794;17.616;2023-05-07T06:15:05;6.80;99.90
56771;DHT22;42641;59.794;17.616;2023-05-07T06:17:32;6.90;99.90
56771;DHT22;42641;59.794;17.616;2023-05-07T06:19:59;7.00;99.90
56771;DHT22;42641;59.794;17.616;2023-05-07T06:22:25;7.10;99.90
56771;DHT22;42641;59.794;17.616;2023-05-07T06:24:52;7.10;99.90
56771;DHT22;42641;59.794;17.616;2023-05-07T06:27:18;7.20;99.90
56771;DHT22;42641;59.794;17.616;2023-05-07T06:29:48;7.30;99.90
56771;DHT22;42641;59.794;17.616;2023-05-07T06:32:16;7.50;99.90
56771;DHT22;42641;59.794;17.616;2023-05-07T06:34:45;7.60;99.90
56771;DHT22;42641;59.794;17.616;2023-05-07T06:37:12;7.70;99.90
56771;DHT22;42641;59.794;17.616;2023-05-07T06:39:53;7.80;99.90
56771;DHT22;42641;59.794;17.616;2023-05-07T06:42:19;7.90;99.90
56771;DHT22;42641;59.794;17.616;2023-05-07T06:44:48;8.00;99.90
56771;DHT22;42641;59.794;17.616;2023-05-07T06:47:16;8.10;99.90
56771;DHT22;42641;59.794;17.616;2023-05-07T06:49:45;8.20;99.90
56771;DHT22;42641;59.794;17.616;2023-05-07T06:52:15;8.30;99.90
56771;DHT22;42641;59.794;17.616;2023-05-07T06:54:42;8.40;99.90
56771;DHT22;42641;59.794;17.616;2023-05-07T06:57:09;8.50;99.90
56771;DHT22;42641;59.794;17.616;2023-05-07T06:59:36;8.60;99.90
56771;DHT22;42641;59.794;17.616;2023-05-07T07:02:06;8.80;99.90
56771;DHT22;42641;59.794;17.616;2023-05-07T07:04:32;8.80;99.90
56771;DHT22;42641;59.794;17.616;2023-05-07T07:07:04;8.90;99.90
56771;DHT22;42641;59.794;17.616;2023-05-07T07:09:31;9.00;99.90
56771;DHT22;42641;59.794;17.616;2023-05-07T07:12:00;9.10;99.90
56771;DHT22;42641;59.794;17.616;2023-05-07T07:14:27;9.20;99.90
56771;DHT22;42641;59.794;17.616;2023-05-07T07:16:54;9.20;99.90
56771;DHT22;42641;59.794;17.616;2023-05-07T07:19:22;9.30;99.90
56771;DHT22;42641;59.794;17.616;2023-05-07T07:21:52;9.40;99.90
56771;DHT22;42641;59.794;17.616;2023-05-07T07:24:19;9.40;99.90
56771;DHT22;42641;59.794;17.616;2023-05-07T07:26:52;9.50;99.90
56771;DHT22;42641;59.794;17.616;2023-05-07T07:29:20;9.60;99.90
56771;DHT22;42641;59.794;17.616;2023-05-07T07:31:48;9.60;99.90
56771;DHT22;42641;59.794;17.616;2023-05-07T07:34:18;9.70;99.90
56771;DHT22;42641;59.794;17.616;2023-05-07T07:36:44;9.80;99.90
56771;DHT22;42641;59.794;17.616;2023-05-07T07:39:11;9.90;99.90
56771;DHT22;42641;59.794;17.616;2023-05-07T07:41:39;10.00;99.90
56771;DHT22;42641;59.794;17.616;2023-05-07T07:44:05;10.00;99.90
56771;DHT22;42641;59.794;17.616;2023-05-07T07:46:35;10.10;99.90
56771;DHT22;42641;59.794;17.616;2023-05-07T07:49:03;10.10;99.90
56771;DHT22;42641;59.794;17.616;2023-05-07T07:51:29;10.10;99.90
56771;DHT22;42641;59.794;17.616;2023-05-07T07:53:57;10.30;99.90
56771;DHT22;42641;59.794;17.616;2023-05-07T07:56:25;10.40;99.90
56771;DHT22;42641;59.794;17.616;2023-05-07T07:58:52;10.50;99.90
56771;DHT22;42641;59.794;17.616;2023-05-07T08:01:19;10.60;99.90
56771;DHT22;42641;59.794;17.616;2023-05-07T08:03:46;10.50;99.90
56771;DHT22;42641;59.794;17.616;2023-05-07T08:06:13;10.70;99.90
56771;DHT22;42641;59.794;17.616;2023-05-07T08:08:40;10.80;99.90
56771;DHT22;42641;59.794;17.616;2023-05-07T08:11:07;10.90;99.90
56771;DHT22;42641;59.794;17.616;2023-05-07T08:13:36;10.90;99.90
56771;DHT22;42641;59.794;17.616;2023-05-07T08:16:04;11.00;99.90
56771;DHT22;42641;59.794;17.616;2023-05-07T08:18:31;11.00;99.90
56771;DHT22;42641;59.794;17.616;2023-05-07T08:21:01;11.00;99.90
56771;DHT22;42641;59.794;17.616;2023-05-07T08:23:28;11.10;99.90
56771;DHT22;42641;59.794;17.616;2023-05-07T08:25:54;11.20;99.90
56771;DHT22;42641;59.794;17.616;2023-05-07T08:28:21;11.30;99.90
56771;DHT22;42641;59.794;17.616;2023-05-07T08:30:48;11.40;99.90
56771;DHT22;42641;59.794;17.616;2023-05-07T08:33:14;11.40;99.90
56771;DHT22;42641;59.794;17.616;2023-05-07T08:35:41;11.30;99.90
56771;DHT22;42641;59.794;17.616;2023-05-07T08:38:08;11.40;99.90
56771;DHT22;42641;59.794;17.616;2023-05-07T08:40:39;11.50;99.90
56771;DHT22;42641;59.794;17.616;2023-05-07T08:43:13;11.60;99.90
56771;DHT22;42641;59.794;17.616;2023-05-07T08:45:41;11.80;99.90
56771;DHT22;42641;59.794;17.616;2023-05-07T08:48:15;11.80;99.90
56771;DHT22;42641;59.794;17.616;2023-05-07T08:50:43;11.80;99.90
56771;DHT22;42641;59.794;17.616;2023-05-07T08:53:11;11.70;99.10
56771;DHT22;42641;59.794;17.616;2023-05-07T08:55:38;11.90;98.80
56771;DHT22;42641;59.794;17.616;2023-05-07T08:58:05;12.00;98.50
56771;DHT22;42641;59.794;17.616;2023-05-07T09:00:36;12.10;98.50
56771;DHT22;42641;59.794;17.616;2023-05-07T09:03:02;12.20;98.40
56771;DHT22;42641;59.794;17.616;2023-05-07T09:05:29;12.40;98.40
56771;DHT22;42641;59.794;17.616;2023-05-07T09:07:59;12.60;99.10
56771;DHT22;42641;59.794;17.616;2023-05-07T09:10:26;12.70;97.20
56771;DHT22;42641;59.794;17.616;2023-05-07T09:12:53;12.70;97.10
56771;DHT22;42641;59.794;17.616;2023-05-07T09:15:20;12.60;94.30
56771;DHT22;42641;59.794;17.616;2023-05-07T09:17:46;12.60;95.50
56771;DHT22;42641;59.794;17.616;2023-05-07T09:20:13;12.40;95.30
56771;DHT22;42641;59.794;17.616;2023-05-07T09:22:40;12.60;95.40
56771;DHT22;42641;59.794;17.616;2023-05-07T09:25:10;12.80;95.80
56771;DHT22;42641;59.794;17.616;2023-05-07T09:27:38;13.10;94.60
56771;DHT22;42641;59.794;17.616;2023-05-07T09:30:06;13.20;94.40
56771;DHT22;42641;59.794;17.616;2023-05-07T09:32:35;13.40;94.60
56771;DHT22;42641;59.794;17.616;2023-05-07T09:35:05;13.40;91.00
56771;DHT22;42641;59.794;17.616;2023-05-07T09:37:32;13.50;91.80
56771;DHT22;42641;59.794;17.616;2023-05-07T09:39:59;13.60;92.60
56771;DHT22;42641;59.794;17.616;2023-05-07T09:42:27;13.70;89.00
56771;DHT22;42641;59.794;17.616;2023-05-07T09:44:58;13.70;86.70
56771;DHT22;42641;59.794;17.616;2023-05-07T09:47:32;13.70;90.10
56771;DHT22;42641;59.794;17.616;2023-05-07T09:50:05;13.80;89.50
56771;DHT22;42641;59.794;17.616;2023-05-07T09:52:34;13.90;88.90
56771;DHT22;42641;59.794;17.616;2023-05-07T09:55:04;13.90;87.40
56771;DHT22;42641;59.794;17.616;2023-05-07T09:57:34;13.80;82.90
56771;DHT22;42641;59.794;17.616;2023-05-07T10:00:06;13.80;83.90
56771;DHT22;42641;59.794;17.616;2023-05-07T10:02:51;14.00;88.80
56771;DHT22;42641;59.794;17.616;2023-05-07T10:05:24;14.30;89.00
56771;DHT22;42641;59.794;17.616;2023-05-07T10:07:54;14.20;83.40
56771;DHT22;42641;59.794;17.616;2023-05-07T10:10:23;14.20;87.90
56771;DHT22;42641;59.794;17.616;2023-05-07T10:12:50;14.40;85.20
56771;DHT22;42641;59.794;17.616;2023-05-07T10:15:26;14.50;85.10
56771;DHT22;42641;59.794;17.616;2023-05-07T10:17:56;14.70;84.40
56771;DHT22;42641;59.794;17.616;2023-05-07T10:20:25;14.80;81.60
56771;DHT22;42641;59.794;17.616;2023-05-07T10:22:56;14.80;79.80
56771;DHT22;42641;59.794;17.616;2023-05-07T10:25:31;14.80;77.50
56771;DHT22;42641;59.794;17.616;2023-05-07T10:28:06;14.80;83.70
56771;DHT22;42641;59.794;17.616;2023-05-07T10:33:24;15.10;82.60
56771;DHT22;42641;59.794;17.616;2023-05-07T10:35:58;15.50;80.50
56771;DHT22;42641;59.794;17.616;2023-05-07T10:38:27;15.60;81.40
56771;DHT22;42641;59.794;17.616;2023-05-07T10:40:54;15.60;80.10
56771;DHT22;42641;59.794;17.616;2023-05-07T10:43:21;15.70;81.40
56771;DHT22;42641;59.794;17.616;2023-05-07T10:46:15;15.70;79.50
56771;DHT22;42641;59.794;17.616;2023-05-07T10:51:36;15.70;80.50
56771;DHT22;42641;59.794;17.616;2023-05-07T10:54:29;15.80;82.20
56771;DHT22;42641;59.794;17.616;2023-05-07T10:59:58;16.30;80.30
56771;DHT22;42641;59.794;17.616;2023-05-07T11:05:34;16.80;78.00
56771;DHT22;42641;59.794;17.616;2023-05-07T11:08:12;17.30;76.80
56771;DHT22;42641;59.794;17.616;2023-05-07T11:10:53;18.20;75.30
56771;DHT22;42641;59.794;17.616;2023-05-07T11:13:47;19.00;73.00
56771;DHT22;42641;59.794;17.616;2023-05-07T11:16:41;19.60;69.00
56771;DHT22;42641;59.794;17.616;2023-05-07T11:19:52;19.80;69.00
56771;DHT22;42641;59.794;17.616;2023-05-07T11:22:42;19.80;67.60
56771;DHT22;42641;59.794;17.616;2023-05-07T11:25:18;19.80;65.80
56771;DHT22;42641;59.794;17.616;2023-05-07T11:27:52;19.80;64.70
56771;DHT22;42641;59.794;17.616;2023-05-07T11:30:19;20.20;64.50
56771;DHT22;42641;59.794;17.616;2023-05-07T11:32:47;20.90;62.40
56771;DHT22;42641;59.794;17.616;2023-05-07T11:35:17;21.40;59.90
56771;DHT22;42641;59.794;17.616;2023-05-07T11:37:47;21.80;58.60
56771;DHT22;42641;59.794;17.616;2023-05-07T11:40:15;22.00;59.60
56771;DHT22;42641;59.794;17.616;2023-05-07T11:42:41;21.90;59.60
56771;DHT22;42641;59.794;17.616;2023-05-07T11:45:09;21.80;58.90
56771;DHT22;42641;59.794;17.616;2023-05-07T11:47:36;21.90;57.90
56771;DHT22;42641;59.794;17.616;2023-05-07T11:50:06;21.90;55.50
56771;DHT22;42641;59.794;17.616;2023-05-07T11:52:33;21.70;57.00
56771;DHT22;42641;59.794;17.616;2023-05-07T11:55:01;21.90;55.70
56771;DHT22;42641;59.794;17.616;2023-05-07T11:57:30;21.70;56.60
56771;DHT22;42641;59.794;17.616;2023-05-07T11:59:57;22.10;55.60
56771;DHT22;42641;59.794;17.616;2023-05-07T12:02:25;22.20;55.50
56771;DHT22;42641;59.794;17.616;2023-05-07T12:04:52;22.10;54.70
56771;DHT22;42641;59.794;17.616;2023-05-07T12:07:19;21.70;55.20
56771;DHT22;42641;59.794;17.616;2023-05-07T12:09:46;22.10;54.60
56771;DHT22;42641;59.794;17.616;2023-05-07T12:12:14;22.40;55.00
56771;DHT22;42641;59.794;17.616;2023-05-07T12:14:45;22.70;54.50
56771;DHT22;42641;59.794;17.616;2023-05-07T12:17:13;23.00;53.40
56771;DHT22;42641;59.794;17.616;2023-05-07T12:19:41;23.40;51.90
56771;DHT22;42641;59.794;17.616;2023-05-07T12:22:08;23.50;51.60
56771;DHT22;42641;59.794;17.616;2023-05-07T12:24:48;23.60;52.10
56771;DHT22;42641;59.794;17.616;2023-05-07T12:27:17;23.80;50.80
56771;DHT22;42641;59.794;17.616;2023-05-07T12:29:48;24.00;51.30
56771;DHT22;42641;59.794;17.616;2023-05-07T12:32:16;24.40;50.20
56771;DHT22;42641;59.794;17.616;2023-05-07T12:34:44;24.60;51.50
56771;DHT22;42641;59.794;17.616;2023-05-07T12:37:11;24.40;49.20
56771;DHT22;42641;59.794;17.616;2023-05-07T12:39:44;23.90;48.90
56771;DHT22;42641;59.794;17.616;2023-05-07T12:42:20;23.70;50.00
56771;DHT22;42641;59.794;17.616;2023-05-07T12:44:52;23.80;49.40
56771;DHT22;42641;59.794;17.616;2023-05-07T12:47:18;23.80;49.30
56771;DHT22;42641;59.794;17.616;2023-05-07T12:49:45;23.90;49.80
56771;DHT22;42641;59.794;17.616;2023-05-07T12:52:12;23.90;50.60
56771;DHT22;42641;59.794;17.616;2023-05-07T12:54:39;24.10;50.70
56771;DHT22;42641;59.794;17.616;2023-05-07T12:57:09;24.10;50.70
56771;DHT22;42641;59.794;17.616;2023-05-07T12:59:37;24.10;49.40
56771;DHT22;42641;59.794;17.616;2023-05-07T13:02:05;24.20;48.80
56771;DHT22;42641;59.794;17.616;2023-05-07T13:04:31;24.00;49.00
56771;DHT22;42641;59.794;17.616;2023-05-07T13:06:59;24.10;49.30
56771;DHT22;42641;59.794;17.616;2023-05-07T13:09:26;24.10;48.80
56771;DHT22;42641;59.794;17.616;2023-05-07T13:11:52;24.10;48.70
56771;DHT22;42641;59.794;17.616;2023-05-07T13:14:18;24.30;48.30
56771;DHT22;42641;59.794;17.616;2023-05-07T13:16:47;24.40;47.40
56771;DHT22;42641;59.794;17.616;2023-05-07T13:19:14;24.70;48.00
56771;DHT22;42641;59.794;17.616;2023-05-07T13:21:40;24.90;46.90
56771;DHT22;42641;59.794;17.616;2023-05-07T13:24:07;25.20;46.70
56771;DHT22;42641;59.794;17.616;2023-05-07T13:26:33;25.30;46.10
56771;DHT22;42641;59.794;17.616;2023-05-07T13:29:00;25.50;46.00
56771;DHT22;42641;59.794;17.616;2023-05-07T13:31:27;25.70;45.70
56771;DHT22;42641;59.794;17.616;2023-05-07T13:33:54;25.60;45.60
56771;DHT22;42641;59.794;17.616;2023-05-07T13:36:22;25.60;44.80
56771;DHT22;42641;59.794;17.616;2023-05-07T13:38:48;25.30;45.50
56771;DHT22;42641;59.794;17.616;2023-05-07T13:41:15;25.30;45.30
56771;DHT22;42641;59.794;17.616;2023-05-07T13:43:41;25.30;44.10
56771;DHT22;42641;59.794;17.616;2023-05-07T13:46:08;25.20;45.90
56771;DHT22;42641;59.794;17.616;2023-05-07T13:48:35;25.10;44.30
56771;DHT22;42641;59.794;17.616;2023-05-07T13:51:01;24.20;44.80
56771;DHT22;42641;59.794;17.616;2023-05-07T13:53:28;23.80;46.40
56771;DHT22;42641;59.794;17.616;2023-05-07T13:55:54;24.10;46.40
56771;DHT22;42641;59.794;17.616;2023-05-07T13:58:21;24.10;45.20
56771;DHT22;42641;59.794;17.616;2023-05-07T14:00:47;24.20;44.80
56771;DHT22;42641;59.794;17.616;2023-05-07T14:03:14;24.00;46.10
56771;DHT22;42641;59.794;17.616;2023-05-07T14:05:40;23.80;46.10
56771;DHT22;42641;59.794;17.616;2023-05-07T14:08:08;24.10;46.70
56771;DHT22;42641;59.794;17.616;2023-05-07T14:10:34;24.60;45.70
56771;DHT22;42641;59.794;17.616;2023-05-07T14:13:01;24.70;45.20
56771;DHT22;42641;59.794;17.616;2023-05-07T14:15:27;24.00;45.70
56771;DHT22;42641;59.794;17.616;2023-05-07T14:17:54;23.20;47.20
56771;DHT22;42641;59.794;17.616;2023-05-07T14:20:20;23.00;48.30
56771;DHT22;42641;59.794;17.616;2023-05-07T14:22:47;23.00;47.90
56771;DHT22;42641;59.794;17.616;2023-05-07T14:25:13;23.30;48.20
56771;DHT22;42641;59.794;17.616;2023-05-07T14:27:40;23.70;48.00
56771;DHT22;42641;59.794;17.616;2023-05-07T14:30:07;24.20;48.50
56771;DHT22;42641;59.794;17.616;2023-05-07T14:32:34;24.30;48.00
56771;DHT22;42641;59.794;17.616;2023-05-07T14:35:01;24.10;47.80
56771;DHT22;42641;59.794;17.616;2023-05-07T14:37:27;24.10;46.10
56771;DHT22;42641;59.794;17.616;2023-05-07T14:39:54;24.10;45.20
56771;DHT22;42641;59.794;17.616;2023-05-07T14:42:20;23.90;45.90
56771;DHT22;42641;59.794;17.616;2023-05-07T14:44:47;24.00;46.60
56771;DHT22;42641;59.794;17.616;2023-05-07T14:47:14;24.30;46.50
56771;DHT22;42641;59.794;17.616;2023-05-07T14:49:41;24.60;45.10
56771;DHT22;42641;59.794;17.616;2023-05-07T14:52:08;24.40;44.50
56771;DHT22;42641;59.794;17.616;2023-05-07T14:54:37;24.00;45.40
56771;DHT22;42641;59.794;17.616;2023-05-07T14:57:04;23.00;46.60
56771;DHT22;42641;59.794;17.616;2023-05-07T14:59:32;22.50;47.20
56771;DHT22;42641;59.794;17.616;2023-05-07T15:01:58;22.40;48.30
56771;DHT22;42641;59.794;17.616;2023-05-07T15:04:25;22.50;49.10
56771;DHT22;42641;59.794;17.616;2023-05-07T15:06:51;22.30;48.60
56771;DHT22;42641;59.794;17.616;2023-05-07T15:09:19;22.00;48.70
56771;DHT22;42641;59.794;17.616;2023-05-07T15:11:46;22.00;49.00
56771;DHT22;42641;59.794;17.616;2023-05-07T15:14:12;21.60;49.10
56771;DHT22;42641;59.794;17.616;2023-05-07T15:16:39;21.30;48.40
56771;DHT22;42641;59.794;17.616;2023-05-07T15:19:05;21.20;49.20
56771;DHT22;42641;59.794;17.616;2023-05-07T15:21:32;21.30;49.10
56771;DHT22;42641;59.794;17.616;2023-05-07T15:24:01;21.10;49.60
56771;DHT22;42641;59.794;17.616;2023-05-07T15:26:27;21.00;51.10
56771;DHT22;42641;59.794;17.616;2023-05-07T15:28:54;21.00;51.00
56771;DHT22;42641;59.794;17.616;2023-05-07T15:31:24;21.00;51.40
56771;DHT22;42641;59.794;17.616;2023-05-07T15:33:51;21.40;52.50
56771;DHT22;42641;59.794;17.616;2023-05-07T15:36:20;22.00;52.60
56771;DHT22;42641;59.794;17.616;2023-05-07T15:38:47;22.30;53.10
56771;DHT22;42641;59.794;17.616;2023-05-07T15:41:14;22.10;53.60